EGNR/CEG METAR and TAF weather

Enter ICAO airport designator
Station Type Date Time Source
EGNR METAR 2022/06/25 16:50 UTC NOAA

EGNR 251650Z 17010KT 140V200 9999 -SHRA FEW032CB BKN047 15/09 Q1004


Station Type Date Time Source
EGNR Decoded METAR 2022/06/25 16:50 UTC NOAA

Hawarden, United Kingdom (EGNR) 53-10N 002-59W 0M
Jun 25, 2022 - 12:50 PM EDT / 2022.06.25 1650 UTC
Wind: from the S (170 degrees) at 12 MPH (10 KT) (direction variable):0
Visibility: greater than 7 mile(s):0
Sky conditions: mostly cloudy
Weather: light rain showers; Cumulonimbus clouds observed
Temperature: 59 F (15 C)
Dew Point: 48 F (9 C)
Relative Humidity: 67%
Pressure (altimeter): 29.65 in. Hg (1004 hPa)
ob: EGNR 251650Z 17010KT 140V200 9999 -SHRA FEW032CB BKN047 15/09 Q1004
cycle: 17

Station Type Date Time Source
EGNR TAF 2016/01/23 12:00 UTC NOAA

TAF EGNR 231059Z 2312/2319 15009KT 9999 FEW020
BECMG 2316/2319 BKN014
TEMPO 2317/2319 6000 RA BKN008

Example: see airport list